sensor_id;sensor_type;location;lat;lon;timestamp;P1;durP1;ratioP1;P2;durP2;ratioP2
6823;SDS011;58633;49.470;11.004;2022-07-23T00:01:16;11.90;;;7.90;;
6823;SDS011;58633;49.470;11.004;2022-07-23T00:03:41;12.75;;;8.13;;
6823;SDS011;58633;49.470;11.004;2022-07-23T00:06:07;14.10;;;8.32;;
6823;SDS011;58633;49.470;11.004;2022-07-23T00:08:32;11.02;;;7.85;;
6823;SDS011;58633;49.470;11.004;2022-07-23T00:10:58;13.57;;;8.98;;
6823;SDS011;58633;49.470;11.004;2022-07-23T00:13:23;9.27;;;7.35;;
6823;SDS011;58633;49.470;11.004;2022-07-23T00:15:49;10.98;;;7.93;;
6823;SDS011;58633;49.470;11.004;2022-07-23T00:18:16;11.95;;;7.75;;
6823;SDS011;58633;49.470;11.004;2022-07-23T00:20:41;10.77;;;7.53;;
6823;SDS011;58633;49.470;11.004;2022-07-23T00:23:07;11.25;;;7.70;;
6823;SDS011;58633;49.470;11.004;2022-07-23T00:25:32;9.25;;;7.35;;
6823;SDS011;58633;49.470;11.004;2022-07-23T00:27:58;11.55;;;7.90;;
6823;SDS011;58633;49.470;11.004;2022-07-23T00:30:25;11.27;;;7.32;;
6823;SDS011;58633;49.470;11.004;2022-07-23T00:32:52;9.38;;;7.50;;
6823;SDS011;58633;49.470;11.004;2022-07-23T00:35:20;9.50;;;7.80;;
6823;SDS011;58633;49.470;11.004;2022-07-23T00:37:46;10.20;;;7.93;;
6823;SDS011;58633;49.470;11.004;2022-07-23T00:40:12;10.02;;;7.57;;
6823;SDS011;58633;49.470;11.004;2022-07-23T00:42:38;9.27;;;7.75;;
6823;SDS011;58633;49.470;11.004;2022-07-23T00:45:04;13.65;;;7.88;;
6823;SDS011;58633;49.470;11.004;2022-07-23T00:47:30;10.45;;;8.15;;
6823;SDS011;58633;49.470;11.004;2022-07-23T00:49:56;10.15;;;8.10;;
6823;SDS011;58633;49.470;11.004;2022-07-23T00:52:22;8.95;;;7.78;;
6823;SDS011;58633;49.470;11.004;2022-07-23T00:54:48;8.75;;;7.85;;
6823;SDS011;58633;49.470;11.004;2022-07-23T00:57:13;13.02;;;8.07;;
6823;SDS011;58633;49.470;11.004;2022-07-23T00:59:42;9.27;;;8.07;;
6823;SDS011;58633;49.470;11.004;2022-07-23T01:02:08;11.40;;;8.25;;
6823;SDS011;58633;49.470;11.004;2022-07-23T01:04:35;9.32;;;7.80;;
6823;SDS011;58633;49.470;11.004;2022-07-23T01:07:01;8.63;;;7.82;;
6823;SDS011;58633;49.470;11.004;2022-07-23T01:09:26;10.85;;;8.13;;
6823;SDS011;58633;49.470;11.004;2022-07-23T01:11:53;10.48;;;8.07;;
6823;SDS011;58633;49.470;11.004;2022-07-23T01:14:19;9.73;;;7.88;;
6823;SDS011;58633;49.470;11.004;2022-07-23T01:16:46;12.30;;;7.88;;
6823;SDS011;58633;49.470;11.004;2022-07-23T01:19:13;9.77;;;7.72;;
6823;SDS011;58633;49.470;11.004;2022-07-23T01:21:40;9.50;;;7.63;;
6823;SDS011;58633;49.470;11.004;2022-07-23T01:24:10;9.32;;;7.50;;
6823;SDS011;58633;49.470;11.004;2022-07-23T01:26:37;9.90;;;7.72;;
6823;SDS011;58633;49.470;11.004;2022-07-23T01:29:03;11.13;;;7.78;;
6823;SDS011;58633;49.470;11.004;2022-07-23T01:31:30;9.57;;;7.10;;
6823;SDS011;58633;49.470;11.004;2022-07-23T01:33:56;11.98;;;7.90;;
6823;SDS011;58633;49.470;11.004;2022-07-23T01:36:22;10.88;;;7.43;;
6823;SDS011;58633;49.470;11.004;2022-07-23T01:38:49;10.35;;;7.85;;
6823;SDS011;58633;49.470;11.004;2022-07-23T01:41:15;9.73;;;7.82;;
6823;SDS011;58633;49.470;11.004;2022-07-23T01:43:41;8.93;;;8.10;;
6823;SDS011;58633;49.470;11.004;2022-07-23T01:46:06;9.70;;;8.02;;
6823;SDS011;58633;49.470;11.004;2022-07-23T01:48:32;9.27;;;8.20;;
6823;SDS011;58633;49.470;11.004;2022-07-23T01:50:57;8.30;;;7.55;;
6823;SDS011;58633;49.470;11.004;2022-07-23T01:53:23;9.95;;;8.02;;
6823;SDS011;58633;49.470;11.004;2022-07-23T01:55:48;10.85;;;8.43;;
6823;SDS011;58633;49.470;11.004;2022-07-23T01:58:14;12.93;;;8.93;;
6823;SDS011;58633;49.470;11.004;2022-07-23T02:00:40;9.02;;;8.00;;
6823;SDS011;58633;49.470;11.004;2022-07-23T02:03:06;10.65;;;8.65;;
6823;SDS011;58633;49.470;11.004;2022-07-23T02:05:31;10.68;;;8.32;;
6823;SDS011;58633;49.470;11.004;2022-07-23T02:07:57;9.68;;;7.90;;
6823;SDS011;58633;49.470;11.004;2022-07-23T02:10:24;10.70;;;8.00;;
6823;SDS011;58633;49.470;11.004;2022-07-23T02:12:50;9.90;;;8.60;;
6823;SDS011;58633;49.470;11.004;2022-07-23T02:15:16;11.10;;;8.82;;
6823;SDS011;58633;49.470;11.004;2022-07-23T02:17:41;9.30;;;8.02;;
6823;SDS011;58633;49.470;11.004;2022-07-23T02:20:07;11.15;;;8.23;;
6823;SDS011;58633;49.470;11.004;2022-07-23T02:22:34;10.70;;;8.10;;
6823;SDS011;58633;49.470;11.004;2022-07-23T02:25:00;11.85;;;8.35;;
6823;SDS011;58633;49.470;11.004;2022-07-23T02:27:25;11.05;;;8.18;;
6823;SDS011;58633;49.470;11.004;2022-07-23T02:29:53;13.35;;;8.73;;
6823;SDS011;58633;49.470;11.004;2022-07-23T02:32:19;10.57;;;8.10;;
6823;SDS011;58633;49.470;11.004;2022-07-23T02:34:46;9.15;;;8.23;;
6823;SDS011;58633;49.470;11.004;2022-07-23T02:37:12;9.48;;;8.20;;
6823;SDS011;58633;49.470;11.004;2022-07-23T02:39:37;13.02;;;8.43;;
6823;SDS011;58633;49.470;11.004;2022-07-23T02:42:03;9.30;;;8.05;;
6823;SDS011;58633;49.470;11.004;2022-07-23T02:44:29;10.15;;;8.70;;
6823;SDS011;58633;49.470;11.004;2022-07-23T02:46:54;11.23;;;8.15;;
6823;SDS011;58633;49.470;11.004;2022-07-23T02:49:20;11.20;;;8.82;;
6823;SDS011;58633;49.470;11.004;2022-07-23T02:51:45;12.45;;;9.77;;
6823;SDS011;58633;49.470;11.004;2022-07-23T02:54:11;12.10;;;9.23;;
6823;SDS011;58633;49.470;11.004;2022-07-23T02:56:36;12.20;;;9.10;;
6823;SDS011;58633;49.470;11.004;2022-07-23T02:59:02;13.85;;;8.70;;
6823;SDS011;58633;49.470;11.004;2022-07-23T03:01:27;9.90;;;8.15;;
6823;SDS011;58633;49.470;11.004;2022-07-23T03:03:53;10.52;;;8.70;;
6823;SDS011;58633;49.470;11.004;2022-07-23T03:06:19;12.10;;;9.00;;
6823;SDS011;58633;49.470;11.004;2022-07-23T03:08:44;12.07;;;9.23;;
6823;SDS011;58633;49.470;11.004;2022-07-23T03:11:10;9.50;;;8.50;;
6823;SDS011;58633;49.470;11.004;2022-07-23T03:13:38;13.70;;;9.32;;
6823;SDS011;58633;49.470;11.004;2022-07-23T03:16:05;10.80;;;9.18;;
6823;SDS011;58633;49.470;11.004;2022-07-23T03:18:30;12.13;;;9.27;;
6823;SDS011;58633;49.470;11.004;2022-07-23T03:20:56;14.13;;;9.88;;
6823;SDS011;58633;49.470;11.004;2022-07-23T03:23:22;12.02;;;9.65;;
6823;SDS011;58633;49.470;11.004;2022-07-23T03:25:48;15.02;;;10.10;;
6823;SDS011;58633;49.470;11.004;2022-07-23T03:28:17;13.10;;;10.00;;
6823;SDS011;58633;49.470;11.004;2022-07-23T03:30:44;14.25;;;9.90;;
6823;SDS011;58633;49.470;11.004;2022-07-23T03:33:14;13.07;;;10.13;;
6823;SDS011;58633;49.470;11.004;2022-07-23T03:35:41;14.32;;;11.00;;
6823;SDS011;58633;49.470;11.004;2022-07-23T03:38:07;12.27;;;9.50;;
6823;SDS011;58633;49.470;11.004;2022-07-23T03:40:33;11.23;;;9.57;;
6823;SDS011;58633;49.470;11.004;2022-07-23T03:42:58;12.43;;;10.38;;
6823;SDS011;58633;49.470;11.004;2022-07-23T03:45:24;13.77;;;10.95;;
6823;SDS011;58633;49.470;11.004;2022-07-23T03:47:50;16.38;;;10.32;;
6823;SDS011;58633;49.470;11.004;2022-07-23T03:50:15;13.43;;;10.98;;
6823;SDS011;58633;49.470;11.004;2022-07-23T03:52:41;11.70;;;10.25;;
6823;SDS011;58633;49.470;11.004;2022-07-23T03:55:06;15.63;;;10.93;;
6823;SDS011;58633;49.470;11.004;2022-07-23T03:57:32;13.32;;;10.90;;
6823;SDS011;58633;49.470;11.004;2022-07-23T03:59:58;11.40;;;9.40;;
6823;SDS011;58633;49.470;11.004;2022-07-23T04:02:23;13.45;;;9.77;;
6823;SDS011;58633;49.470;11.004;2022-07-23T04:04:49;11.48;;;8.93;;
6823;SDS011;58633;49.470;11.004;2022-07-23T04:07:15;11.70;;;9.00;;
6823;SDS011;58633;49.470;11.004;2022-07-23T04:09:42;10.25;;;9.07;;
6823;SDS011;58633;49.470;11.004;2022-07-23T04:12:08;9.85;;;8.65;;
6823;SDS011;58633;49.470;11.004;2022-07-23T04:14:33;10.88;;;8.93;;
6823;SDS011;58633;49.470;11.004;2022-07-23T04:16:59;11.05;;;9.90;;
6823;SDS011;58633;49.470;11.004;2022-07-23T04:19:25;12.68;;;8.80;;
6823;SDS011;58633;49.470;11.004;2022-07-23T04:21:51;12.40;;;9.30;;
6823;SDS011;58633;49.470;11.004;2022-07-23T04:24:17;11.38;;;9.25;;
6823;SDS011;58633;49.470;11.004;2022-07-23T04:26:43;10.60;;;9.50;;
6823;SDS011;58633;49.470;11.004;2022-07-23T04:29:09;11.50;;;9.38;;
6823;SDS011;58633;49.470;11.004;2022-07-23T04:31:35;10.55;;;9.43;;
6823;SDS011;58633;49.470;11.004;2022-07-23T04:34:00;12.05;;;9.30;;
6823;SDS011;58633;49.470;11.004;2022-07-23T04:36:26;10.48;;;8.73;;
6823;SDS011;58633;49.470;11.004;2022-07-23T04:38:51;11.70;;;8.75;;
6823;SDS011;58633;49.470;11.004;2022-07-23T04:41:17;10.23;;;8.63;;
6823;SDS011;58633;49.470;11.004;2022-07-23T04:43:42;9.95;;;8.90;;
6823;SDS011;58633;49.470;11.004;2022-07-23T04:46:08;10.77;;;8.82;;
6823;SDS011;58633;49.470;11.004;2022-07-23T04:48:35;9.60;;;8.55;;
6823;SDS011;58633;49.470;11.004;2022-07-23T04:51:01;12.70;;;8.60;;
6823;SDS011;58633;49.470;11.004;2022-07-23T04:53:26;13.15;;;9.82;;
6823;SDS011;58633;49.470;11.004;2022-07-23T04:55:53;11.00;;;9.32;;
6823;SDS011;58633;49.470;11.004;2022-07-23T04:58:18;11.02;;;8.30;;
6823;SDS011;58633;49.470;11.004;2022-07-23T05:00:44;8.45;;;7.25;;
6823;SDS011;58633;49.470;11.004;2022-07-23T05:03:09;14.00;;;7.63;;
6823;SDS011;58633;49.470;11.004;2022-07-23T05:05:35;11.82;;;7.43;;
6823;SDS011;58633;49.470;11.004;2022-07-23T05:08:01;8.75;;;6.45;;
6823;SDS011;58633;49.470;11.004;2022-07-23T05:10:26;11.68;;;7.22;;
6823;SDS011;58633;49.470;11.004;2022-07-23T05:12:52;7.13;;;6.20;;
6823;SDS011;58633;49.470;11.004;2022-07-23T05:15:17;9.25;;;6.60;;
6823;SDS011;58633;49.470;11.004;2022-07-23T05:17:43;7.65;;;6.95;;
6823;SDS011;58633;49.470;11.004;2022-07-23T05:20:08;8.73;;;6.15;;
6823;SDS011;58633;49.470;11.004;2022-07-23T05:22:34;8.13;;;6.10;;
6823;SDS011;58633;49.470;11.004;2022-07-23T05:25:00;7.70;;;5.88;;
6823;SDS011;58633;49.470;11.004;2022-07-23T05:27:25;6.95;;;6.22;;
6823;SDS011;58633;49.470;11.004;2022-07-23T05:29:51;5.60;;;5.10;;
6823;SDS011;58633;49.470;11.004;2022-07-23T05:32:16;7.53;;;6.28;;
6823;SDS011;58633;49.470;11.004;2022-07-23T05:34:42;5.93;;;5.32;;
6823;SDS011;58633;49.470;11.004;2022-07-23T05:37:08;7.22;;;5.70;;
6823;SDS011;58633;49.470;11.004;2022-07-23T05:39:33;5.60;;;5.10;;
6823;SDS011;58633;49.470;11.004;2022-07-23T05:41:59;5.45;;;4.95;;
6823;SDS011;58633;49.470;11.004;2022-07-23T05:44:24;6.43;;;5.13;;
6823;SDS011;58633;49.470;11.004;2022-07-23T05:46:52;6.40;;;4.90;;
6823;SDS011;58633;49.470;11.004;2022-07-23T05:49:17;5.47;;;4.95;;
6823;SDS011;58633;49.470;11.004;2022-07-23T05:51:43;6.22;;;4.75;;
6823;SDS011;58633;49.470;11.004;2022-07-23T05:54:08;5.75;;;4.38;;
6823;SDS011;58633;49.470;11.004;2022-07-23T05:56:34;5.95;;;4.80;;
6823;SDS011;58633;49.470;11.004;2022-07-23T05:59:00;5.68;;;5.18;;
6823;SDS011;58633;49.470;11.004;2022-07-23T06:01:25;5.10;;;4.53;;
6823;SDS011;58633;49.470;11.004;2022-07-23T06:03:51;5.32;;;4.70;;
6823;SDS011;58633;49.470;11.004;2022-07-23T06:06:17;5.43;;;4.55;;
6823;SDS011;58633;49.470;11.004;2022-07-23T06:08:42;5.38;;;4.80;;
6823;SDS011;58633;49.470;11.004;2022-07-23T06:11:08;5.30;;;4.80;;
6823;SDS011;58633;49.470;11.004;2022-07-23T06:13:33;4.85;;;4.45;;
6823;SDS011;58633;49.470;11.004;2022-07-23T06:15:59;5.28;;;4.78;;
6823;SDS011;58633;49.470;11.004;2022-07-23T06:18:25;6.18;;;4.70;;
6823;SDS011;58633;49.470;11.004;2022-07-23T06:20:50;5.65;;;4.72;;
6823;SDS011;58633;49.470;11.004;2022-07-23T06:23:16;6.88;;;5.18;;
6823;SDS011;58633;49.470;11.004;2022-07-23T06:25:41;5.60;;;5.00;;
6823;SDS011;58633;49.470;11.004;2022-07-23T06:28:07;6.25;;;4.93;;
6823;SDS011;58633;49.470;11.004;2022-07-23T06:30:32;7.22;;;5.20;;
6823;SDS011;58633;49.470;11.004;2022-07-23T06:32:58;6.40;;;4.63;;
6823;SDS011;58633;49.470;11.004;2022-07-23T06:35:23;5.40;;;4.90;;
6823;SDS011;58633;49.470;11.004;2022-07-23T06:37:49;5.22;;;4.65;;
6823;SDS011;58633;49.470;11.004;2022-07-23T06:40:15;5.10;;;4.60;;
6823;SDS011;58633;49.470;11.004;2022-07-23T06:42:41;6.00;;;4.38;;
6823;SDS011;58633;49.470;11.004;2022-07-23T06:45:07;6.35;;;4.80;;
6823;SDS011;58633;49.470;11.004;2022-07-23T06:47:34;5.25;;;4.78;;
6823;SDS011;58633;49.470;11.004;2022-07-23T06:49:59;6.70;;;4.82;;
6823;SDS011;58633;49.470;11.004;2022-07-23T06:52:25;5.78;;;5.20;;
6823;SDS011;58633;49.470;11.004;2022-07-23T06:54:51;7.13;;;5.15;;
6823;SDS011;58633;49.470;11.004;2022-07-23T06:57:17;7.18;;;5.35;;
6823;SDS011;58633;49.470;11.004;2022-07-23T06:59:42;5.78;;;5.07;;
6823;SDS011;58633;49.470;11.004;2022-07-23T07:02:09;6.07;;;5.22;;
6823;SDS011;58633;49.470;11.004;2022-07-23T07:04:34;5.82;;;5.20;;
6823;SDS011;58633;49.470;11.004;2022-07-23T07:07:01;6.18;;;5.57;;
6823;SDS011;58633;49.470;11.004;2022-07-23T07:09:27;7.10;;;5.97;;
6823;SDS011;58633;49.470;11.004;2022-07-23T07:11:52;7.13;;;6.15;;
6823;SDS011;58633;49.470;11.004;2022-07-23T07:14:18;8.60;;;6.45;;
6823;SDS011;58633;49.470;11.004;2022-07-23T07:16:43;6.75;;;6.05;;
6823;SDS011;58633;49.470;11.004;2022-07-23T07:19:09;8.57;;;6.72;;
6823;SDS011;58633;49.470;11.004;2022-07-23T07:21:34;7.43;;;6.00;;
6823;SDS011;58633;49.470;11.004;2022-07-23T07:24:00;7.38;;;6.05;;
6823;SDS011;58633;49.470;11.004;2022-07-23T07:26:25;7.25;;;6.55;;
6823;SDS011;58633;49.470;11.004;2022-07-23T07:28:52;7.05;;;6.32;;
6823;SDS011;58633;49.470;11.004;2022-07-23T07:31:18;10.30;;;6.50;;
6823;SDS011;58633;49.470;11.004;2022-07-23T07:33:44;6.60;;;5.93;;
6823;SDS011;58633;49.470;11.004;2022-07-23T07:36:10;8.80;;;6.28;;
6823;SDS011;58633;49.470;11.004;2022-07-23T07:38:35;6.70;;;5.80;;
6823;SDS011;58633;49.470;11.004;2022-07-23T07:41:01;7.20;;;6.38;;
6823;SDS011;58633;49.470;11.004;2022-07-23T07:43:26;8.13;;;6.80;;
6823;SDS011;58633;49.470;11.004;2022-07-23T07:45:53;7.70;;;6.18;;
6823;SDS011;58633;49.470;11.004;2022-07-23T07:48:18;10.68;;;6.38;;
6823;SDS011;58633;49.470;11.004;2022-07-23T07:50:44;7.22;;;6.15;;
6823;SDS011;58633;49.470;11.004;2022-07-23T07:53:09;8.05;;;6.43;;
6823;SDS011;58633;49.470;11.004;2022-07-23T07:55:35;8.95;;;7.28;;
6823;SDS011;58633;49.470;11.004;2022-07-23T07:58:01;8.80;;;7.50;;
6823;SDS011;58633;49.470;11.004;2022-07-23T08:00:26;10.73;;;7.25;;
6823;SDS011;58633;49.470;11.004;2022-07-23T08:02:53;9.38;;;7.50;;
6823;SDS011;58633;49.470;11.004;2022-07-23T08:05:21;8.13;;;7.25;;
6823;SDS011;58633;49.470;11.004;2022-07-23T08:07:48;8.52;;;7.28;;
6823;SDS011;58633;49.470;11.004;2022-07-23T08:10:14;7.97;;;7.18;;
6823;SDS011;58633;49.470;11.004;2022-07-23T08:12:41;12.13;;;7.60;;
6823;SDS011;58633;49.470;11.004;2022-07-23T08:15:15;10.30;;;7.10;;
6823;SDS011;58633;49.470;11.004;2022-07-23T08:17:42;7.93;;;7.13;;
6823;SDS011;58633;49.470;11.004;2022-07-23T08:20:10;7.43;;;6.63;;
6823;SDS011;58633;49.470;11.004;2022-07-23T08:22:41;7.65;;;6.53;;
6823;SDS011;58633;49.470;11.004;2022-07-23T08:25:19;8.07;;;6.22;;
6823;SDS011;58633;49.470;11.004;2022-07-23T08:27:46;7.22;;;6.53;;
6823;SDS011;58633;49.470;11.004;2022-07-23T08:30:12;7.55;;;6.50;;
6823;SDS011;58633;49.470;11.004;2022-07-23T08:32:55;7.18;;;5.97;;
6823;SDS011;58633;49.470;11.004;2022-07-23T08:35:23;8.10;;;6.53;;
6823;SDS011;58633;49.470;11.004;2022-07-23T08:37:50;6.88;;;6.20;;
6823;SDS011;58633;49.470;11.004;2022-07-23T08:40:16;7.63;;;6.60;;
6823;SDS011;58633;49.470;11.004;2022-07-23T08:42:43;6.07;;;5.47;;
6823;SDS011;58633;49.470;11.004;2022-07-23T08:45:11;9.02;;;5.50;;
6823;SDS011;58633;49.470;11.004;2022-07-23T08:47:40;8.32;;;5.82;;
6823;SDS011;58633;49.470;11.004;2022-07-23T08:50:07;6.85;;;6.25;;
6823;SDS011;58633;49.470;11.004;2022-07-23T08:52:34;7.07;;;6.47;;
6823;SDS011;58633;49.470;11.004;2022-07-23T08:55:01;6.63;;;6.03;;
6823;SDS011;58633;49.470;11.004;2022-07-23T08:57:26;6.85;;;6.18;;
6823;SDS011;58633;49.470;11.004;2022-07-23T08:59:52;6.40;;;5.80;;
6823;SDS011;58633;49.470;11.004;2022-07-23T09:02:18;7.05;;;6.35;;
6823;SDS011;58633;49.470;11.004;2022-07-23T09:04:44;7.70;;;6.40;;
6823;SDS011;58633;49.470;11.004;2022-07-23T09:07:10;6.95;;;6.00;;
6823;SDS011;58633;49.470;11.004;2022-07-23T09:09:36;7.93;;;5.60;;
6823;SDS011;58633;49.470;11.004;2022-07-23T09:12:05;7.10;;;6.05;;
6823;SDS011;58633;49.470;11.004;2022-07-23T09:14:43;7.00;;;6.30;;
6823;SDS011;58633;49.470;11.004;2022-07-23T09:17:12;7.57;;;6.78;;
6823;SDS011;58633;49.470;11.004;2022-07-23T09:19:40;7.10;;;6.10;;
6823;SDS011;58633;49.470;11.004;2022-07-23T09:22:16;8.02;;;6.22;;
6823;SDS011;58633;49.470;11.004;2022-07-23T09:25:24;6.78;;;6.05;;
6823;SDS011;58633;49.470;11.004;2022-07-23T09:30:18;9.10;;;6.90;;
6823;SDS011;58633;49.470;11.004;2022-07-23T09:32:44;8.02;;;6.10;;
6823;SDS011;58633;49.470;11.004;2022-07-23T09:38:16;8.60;;;6.75;;
6823;SDS011;58633;49.470;11.004;2022-07-23T09:40:42;9.52;;;6.30;;
6823;SDS011;58633;49.470;11.004;2022-07-23T09:43:09;10.52;;;6.60;;
6823;SDS011;58633;49.470;11.004;2022-07-23T09:45:34;7.53;;;6.30;;
6823;SDS011;58633;49.470;11.004;2022-07-23T09:48:13;8.52;;;6.18;;
6823;SDS011;58633;49.470;11.004;2022-07-23T09:50:40;6.82;;;5.88;;
6823;SDS011;58633;49.470;11.004;2022-07-23T09:53:07;8.60;;;6.65;;
6823;SDS011;58633;49.470;11.004;2022-07-23T09:55:33;9.00;;;6.35;;
6823;SDS011;58633;49.470;11.004;2022-07-23T09:58:07;7.95;;;6.43;;
6823;SDS011;58633;49.470;11.004;2022-07-23T10:00:37;7.40;;;6.00;;
6823;SDS011;58633;49.470;11.004;2022-07-23T10:03:04;7.75;;;6.63;;
6823;SDS011;58633;49.470;11.004;2022-07-23T10:05:30;7.70;;;6.90;;
6823;SDS011;58633;49.470;11.004;2022-07-23T10:07:57;7.95;;;7.00;;
6823;SDS011;58633;49.470;11.004;2022-07-23T10:10:26;8.50;;;6.60;;
6823;SDS011;58633;49.470;11.004;2022-07-23T10:12:54;8.95;;;6.85;;
6823;SDS011;58633;49.470;11.004;2022-07-23T10:15:24;10.02;;;6.20;;
6823;SDS011;58633;49.470;11.004;2022-07-23T10:17:50;9.98;;;7.35;;
6823;SDS011;58633;49.470;11.004;2022-07-23T10:20:16;8.68;;;7.35;;
6823;SDS011;58633;49.470;11.004;2022-07-23T10:22:47;10.00;;;7.20;;
6823;SDS011;58633;49.470;11.004;2022-07-23T10:28:22;10.48;;;7.47;;
6823;SDS011;58633;49.470;11.004;2022-07-23T10:33:54;8.27;;;7.03;;
6823;SDS011;58633;49.470;11.004;2022-07-23T10:36:28;10.65;;;8.15;;
6823;SDS011;58633;49.470;11.004;2022-07-23T10:39:17;8.43;;;7.50;;
6823;SDS011;58633;49.470;11.004;2022-07-23T10:41:48;8.82;;;7.72;;
6823;SDS011;58633;49.470;11.004;2022-07-23T10:44:15;10.85;;;7.40;;
6823;SDS011;58633;49.470;11.004;2022-07-23T10:46:58;9.82;;;8.45;;
6823;SDS011;58633;49.470;11.004;2022-07-23T10:49:32;8.93;;;7.95;;
6823;SDS011;58633;49.470;11.004;2022-07-23T10:54:39;11.05;;;7.82;;
6823;SDS011;58633;49.470;11.004;2022-07-23T10:57:06;8.63;;;7.50;;
6823;SDS011;58633;49.470;11.004;2022-07-23T11:02:34;10.00;;;7.72;;
6823;SDS011;58633;49.470;11.004;2022-07-23T11:05:04;8.90;;;7.97;;
6823;SDS011;58633;49.470;11.004;2022-07-23T11:07:33;9.00;;;6.78;;
6823;SDS011;58633;49.470;11.004;2022-07-23T11:09:59;7.93;;;7.10;;
6823;SDS011;58633;49.470;11.004;2022-07-23T11:15:04;10.30;;;6.72;;
6823;SDS011;58633;49.470;11.004;2022-07-23T11:17:35;8.40;;;6.90;;
6823;SDS011;58633;49.470;11.004;2022-07-23T11:25:51;7.20;;;6.50;;
6823;SDS011;58633;49.470;11.004;2022-07-23T11:28:16;8.45;;;6.57;;
6823;SDS011;58633;49.470;11.004;2022-07-23T11:30:44;7.20;;;6.10;;
6823;SDS011;58633;49.470;11.004;2022-07-23T11:35:37;8.25;;;6.93;;
6823;SDS011;58633;49.470;11.004;2022-07-23T11:38:05;9.13;;;7.10;;
6823;SDS011;58633;49.470;11.004;2022-07-23T11:40:32;7.75;;;6.95;;
6823;SDS011;58633;49.470;11.004;2022-07-23T11:43:03;9.25;;;6.47;;
6823;SDS011;58633;49.470;11.004;2022-07-23T11:45:33;7.57;;;6.10;;
6823;SDS011;58633;49.470;11.004;2022-07-23T11:48:00;9.63;;;6.93;;
6823;SDS011;58633;49.470;11.004;2022-07-23T11:50:27;7.85;;;6.63;;
6823;SDS011;58633;49.470;11.004;2022-07-23T11:52:53;7.75;;;6.55;;
6823;SDS011;58633;49.470;11.004;2022-07-23T11:55:19;8.57;;;6.90;;
6823;SDS011;58633;49.470;11.004;2022-07-23T11:57:45;8.02;;;7.03;;
6823;SDS011;58633;49.470;11.004;2022-07-23T12:00:12;8.55;;;7.40;;
6823;SDS011;58633;49.470;11.004;2022-07-23T12:02:49;8.07;;;7.28;;
6823;SDS011;58633;49.470;11.004;2022-07-23T12:07:44;8.65;;;7.57;;
6823;SDS011;58633;49.470;11.004;2022-07-23T12:10:22;7.75;;;6.78;;
6823;SDS011;58633;49.470;11.004;2022-07-23T12:15:14;10.55;;;6.53;;
6823;SDS011;58633;49.470;11.004;2022-07-23T12:17:42;7.50;;;6.63;;
6823;SDS011;58633;49.470;11.004;2022-07-23T12:20:10;7.47;;;6.65;;
6823;SDS011;58633;49.470;11.004;2022-07-23T12:22:44;7.85;;;5.90;;
6823;SDS011;58633;49.470;11.004;2022-07-23T12:27:37;8.48;;;5.82;;
6823;SDS011;58633;49.470;11.004;2022-07-23T12:30:26;7.47;;;6.60;;
6823;SDS011;58633;49.470;11.004;2022-07-23T12:32:52;7.63;;;6.45;;
6823;SDS011;58633;49.470;11.004;2022-07-23T12:35:19;7.53;;;5.72;;
6823;SDS011;58633;49.470;11.004;2022-07-23T12:37:46;6.32;;;5.72;;
6823;SDS011;58633;49.470;11.004;2022-07-23T12:40:22;8.45;;;6.53;;
6823;SDS011;58633;49.470;11.004;2022-07-23T12:43:08;8.00;;;6.88;;
6823;SDS011;58633;49.470;11.004;2022-07-23T12:45:42;6.72;;;6.07;;
6823;SDS011;58633;49.470;11.004;2022-07-23T12:48:15;6.78;;;6.07;;
6823;SDS011;58633;49.470;11.004;2022-07-23T12:50:49;7.03;;;5.90;;
6823;SDS011;58633;49.470;11.004;2022-07-23T12:53:24;6.35;;;5.75;;
6823;SDS011;58633;49.470;11.004;2022-07-23T12:55:53;6.85;;;6.25;;
6823;SDS011;58633;49.470;11.004;2022-07-23T12:58:23;6.78;;;6.07;;
6823;SDS011;58633;49.470;11.004;2022-07-23T13:06:18;7.72;;;6.07;;
6823;SDS011;58633;49.470;11.004;2022-07-23T13:08:43;6.25;;;5.75;;
6823;SDS011;58633;49.470;11.004;2022-07-23T13:11:09;6.80;;;6.15;;
6823;SDS011;58633;49.470;11.004;2022-07-23T13:13:34;6.00;;;5.50;;
6823;SDS011;58633;49.470;11.004;2022-07-23T13:16:00;6.38;;;5.78;;
6823;SDS011;58633;49.470;11.004;2022-07-23T13:18:27;8.15;;;5.90;;
6823;SDS011;58633;49.470;11.004;2022-07-23T13:20:53;6.75;;;6.15;;
6823;SDS011;58633;49.470;11.004;2022-07-23T13:23:19;7.68;;;6.85;;
6823;SDS011;58633;49.470;11.004;2022-07-23T13:25:45;6.80;;;6.20;;
6823;SDS011;58633;49.470;11.004;2022-07-23T13:28:11;7.40;;;6.70;;
6823;SDS011;58633;49.470;11.004;2022-07-23T13:30:38;7.50;;;6.90;;
6823;SDS011;58633;49.470;11.004;2022-07-23T13:33:04;7.43;;;6.20;;
6823;SDS011;58633;49.470;11.004;2022-07-23T13:35:30;7.43;;;6.35;;
6823;SDS011;58633;49.470;11.004;2022-07-23T13:37:56;7.47;;;6.47;;
6823;SDS011;58633;49.470;11.004;2022-07-23T13:40:22;7.30;;;6.70;;
6823;SDS011;58633;49.470;11.004;2022-07-23T13:42:47;8.27;;;7.43;;
6823;SDS011;58633;49.470;11.004;2022-07-23T13:45:13;7.70;;;7.00;;
6823;SDS011;58633;49.470;11.004;2022-07-23T13:47:39;6.55;;;5.95;;
6823;SDS011;58633;49.470;11.004;2022-07-23T13:50:05;6.20;;;5.70;;
6823;SDS011;58633;49.470;11.004;2022-07-23T13:52:31;6.53;;;5.90;;
6823;SDS011;58633;49.470;11.004;2022-07-23T13:54:58;6.50;;;5.90;;
6823;SDS011;58633;49.470;11.004;2022-07-23T13:57:28;7.15;;;6.40;;
6823;SDS011;58633;49.470;11.004;2022-07-23T13:59:54;7.50;;;6.35;;
6823;SDS011;58633;49.470;11.004;2022-07-23T14:02:20;7.32;;;6.40;;
6823;SDS011;58633;49.470;11.004;2022-07-23T14:04:46;6.90;;;6.30;;
6823;SDS011;58633;49.470;11.004;2022-07-23T14:07:11;6.43;;;5.88;;
6823;SDS011;58633;49.470;11.004;2022-07-23T14:09:37;6.38;;;5.88;;
6823;SDS011;58633;49.470;11.004;2022-07-23T14:12:03;6.28;;;5.78;;
6823;SDS011;58633;49.470;11.004;2022-07-23T14:14:30;7.00;;;5.95;;
6823;SDS011;58633;49.470;11.004;2022-07-23T14:16:55;7.10;;;6.50;;
6823;SDS011;58633;49.470;11.004;2022-07-23T14:19:21;6.60;;;5.90;;
6823;SDS011;58633;49.470;11.004;2022-07-23T14:21:47;6.40;;;5.80;;
6823;SDS011;58633;49.470;11.004;2022-07-23T14:24:13;6.60;;;6.00;;
6823;SDS011;58633;49.470;11.004;2022-07-23T14:26:39;7.78;;;6.28;;
6823;SDS011;58633;49.470;11.004;2022-07-23T14:29:06;6.20;;;5.72;;
6823;SDS011;58633;49.470;11.004;2022-07-23T14:31:32;7.88;;;6.22;;
6823;SDS011;58633;49.470;11.004;2022-07-23T14:33:57;7.13;;;6.53;;
6823;SDS011;58633;49.470;11.004;2022-07-23T14:36:23;6.53;;;5.93;;
6823;SDS011;58633;49.470;11.004;2022-07-23T14:38:50;6.60;;;5.90;;
6823;SDS011;58633;49.470;11.004;2022-07-23T14:41:16;6.65;;;6.05;;
6823;SDS011;58633;49.470;11.004;2022-07-23T14:43:42;6.40;;;5.90;;
6823;SDS011;58633;49.470;11.004;2022-07-23T14:46:07;6.40;;;5.80;;
6823;SDS011;58633;49.470;11.004;2022-07-23T14:48:33;6.68;;;6.15;;
6823;SDS011;58633;49.470;11.004;2022-07-23T14:50:59;6.20;;;5.70;;
6823;SDS011;58633;49.470;11.004;2022-07-23T14:53:24;6.90;;;6.20;;
6823;SDS011;58633;49.470;11.004;2022-07-23T14:55:50;7.47;;;6.15;;
6823;SDS011;58633;49.470;11.004;2022-07-23T14:58:15;7.95;;;5.78;;
6823;SDS011;58633;49.470;11.004;2022-07-23T15:00:41;6.13;;;5.55;;
6823;SDS011;58633;49.470;11.004;2022-07-23T15:03:07;5.70;;;5.20;;
6823;SDS011;58633;49.470;11.004;2022-07-23T15:05:32;6.40;;;5.50;;
6823;SDS011;58633;49.470;11.004;2022-07-23T15:07:58;5.40;;;5.00;;
6823;SDS011;58633;49.470;11.004;2022-07-23T15:10:24;5.65;;;5.18;;
6823;SDS011;58633;49.470;11.004;2022-07-23T15:12:50;7.20;;;5.68;;
6823;SDS011;58633;49.470;11.004;2022-07-23T15:15:15;8.07;;;5.75;;
6823;SDS011;58633;49.470;11.004;2022-07-23T15:17:43;5.88;;;5.28;;
6823;SDS011;58633;49.470;11.004;2022-07-23T15:20:09;6.45;;;5.85;;
6823;SDS011;58633;49.470;11.004;2022-07-23T15:22:35;5.63;;;5.13;;